sensor_id;sensor_type;location;lat;lon;timestamp;P1;durP1;ratioP1;P2;durP2;ratioP2
64060;SDS011;60147;55.036;73.242;2022-11-15T14:41:25;8.23;;;3.97;;
64060;SDS011;60147;55.036;73.242;2022-11-15T14:43:58;14.48;;;6.97;;
64060;SDS011;60147;55.036;73.242;2022-11-15T14:46:24;16.15;;;8.27;;
64060;SDS011;60147;55.036;73.242;2022-11-15T14:48:50;7.45;;;4.00;;
64060;SDS011;60147;55.036;73.242;2022-11-15T14:51:16;16.52;;;7.90;;
64060;SDS011;60147;55.036;73.242;2022-11-15T14:53:43;8.95;;;5.15;;
64060;SDS011;60147;55.036;73.242;2022-11-15T14:56:09;5.80;;;3.45;;
64060;SDS011;60147;55.036;73.242;2022-11-15T14:58:45;15.27;;;8.27;;
64060;SDS011;60147;55.036;73.242;2022-11-15T15:01:19;12.95;;;7.40;;
64060;SDS011;60147;55.036;73.242;2022-11-15T15:03:45;12.48;;;6.43;;
64060;SDS011;60147;55.036;73.242;2022-11-15T15:06:21;23.45;;;10.75;;
64060;SDS011;60147;55.036;73.242;2022-11-15T15:11:24;7.05;;;3.72;;
64060;SDS011;60147;55.036;73.242;2022-11-15T15:13:56;15.77;;;7.93;;
64060;SDS011;60147;55.036;73.242;2022-11-15T15:16:25;120.85;;;48.17;;
64060;SDS011;60147;55.036;73.242;2022-11-15T15:18:51;23.63;;;10.93;;
64060;SDS011;60147;55.036;73.242;2022-11-15T15:21:28;415.58;;;140.65;;
64060;SDS011;60147;55.036;73.242;2022-11-15T15:23:54;436.05;;;145.23;;
64060;SDS011;60147;55.036;73.242;2022-11-15T15:26:23;139.50;;;50.00;;
64060;SDS011;60147;55.036;73.242;2022-11-15T15:28:49;180.43;;;77.05;;
64060;SDS011;60147;55.036;73.242;2022-11-15T15:31:27;51.15;;;26.45;;
64060;SDS011;60147;55.036;73.242;2022-11-15T15:34:02;75.13;;;39.70;;
64060;SDS011;60147;55.036;73.242;2022-11-15T15:36:28;32.00;;;17.02;;
64060;SDS011;60147;55.036;73.242;2022-11-15T15:38:54;71.18;;;42.40;;
64060;SDS011;60147;55.036;73.242;2022-11-15T15:41:24;20.70;;;12.75;;
64060;SDS011;60147;55.036;73.242;2022-11-15T15:43:50;49.47;;;34.55;;
64060;SDS011;60147;55.036;73.242;2022-11-15T15:46:16;25.15;;;16.70;;
64060;SDS011;60147;55.036;73.242;2022-11-15T15:48:52;5.82;;;3.50;;
64060;SDS011;60147;55.036;73.242;2022-11-15T15:51:18;6.63;;;4.07;;
64060;SDS011;60147;55.036;73.242;2022-11-15T15:53:47;10.23;;;7.93;;
64060;SDS011;60147;55.036;73.242;2022-11-15T15:56:23;9.35;;;5.95;;
64060;SDS011;60147;55.036;73.242;2022-11-15T15:58:49;5.72;;;3.72;;
64060;SDS011;60147;55.036;73.242;2022-11-15T16:01:14;4.93;;;3.22;;
64060;SDS011;60147;55.036;73.242;2022-11-15T16:03:40;3.35;;;2.72;;
64060;SDS011;60147;55.036;73.242;2022-11-15T16:09:06;4.45;;;2.83;;
64060;SDS011;60147;55.036;73.242;2022-11-15T16:11:32;4.55;;;2.13;;
64060;SDS011;60147;55.036;73.242;2022-11-15T16:14:03;4.20;;;2.50;;
64060;SDS011;60147;55.036;73.242;2022-11-15T16:16:29;6.18;;;4.25;;
64060;SDS011;60147;55.036;73.242;2022-11-15T16:19:00;3.42;;;2.10;;
64060;SDS011;60147;55.036;73.242;2022-11-15T16:21:32;11.27;;;6.55;;
64060;SDS011;60147;55.036;73.242;2022-11-15T16:24:04;7.28;;;4.40;;
64060;SDS011;60147;55.036;73.242;2022-11-15T16:26:31;3.75;;;2.78;;
64060;SDS011;60147;55.036;73.242;2022-11-15T16:29:03;5.63;;;3.53;;
64060;SDS011;60147;55.036;73.242;2022-11-15T16:31:29;3.40;;;2.28;;
64060;SDS011;60147;55.036;73.242;2022-11-15T16:33:55;4.25;;;3.08;;
64060;SDS011;60147;55.036;73.242;2022-11-15T16:36:26;2.90;;;2.15;;
64060;SDS011;60147;55.036;73.242;2022-11-15T16:38:54;9.50;;;3.28;;
64060;SDS011;60147;55.036;73.242;2022-11-15T16:41:20;5.80;;;2.42;;
64060;SDS011;60147;55.036;73.242;2022-11-15T16:43:46;4.13;;;2.53;;
64060;SDS011;60147;55.036;73.242;2022-11-15T16:46:14;4.43;;;2.70;;
64060;SDS011;60147;55.036;73.242;2022-11-15T16:48:45;5.22;;;2.33;;
64060;SDS011;60147;55.036;73.242;2022-11-15T16:51:11;7.45;;;3.00;;
64060;SDS011;60147;55.036;73.242;2022-11-15T16:53:37;4.00;;;2.50;;
64060;SDS011;60147;55.036;73.242;2022-11-15T16:56:16;5.82;;;3.20;;
64060;SDS011;60147;55.036;73.242;2022-11-15T16:58:42;4.13;;;2.63;;
64060;SDS011;60147;55.036;73.242;2022-11-15T17:01:14;2.92;;;2.00;;
64060;SDS011;60147;55.036;73.242;2022-11-15T17:03:52;3.60;;;2.25;;
64060;SDS011;60147;55.036;73.242;2022-11-15T17:06:42;5.07;;;2.90;;
64060;SDS011;60147;55.036;73.242;2022-11-15T17:09:16;3.92;;;2.33;;
64060;SDS011;60147;55.036;73.242;2022-11-15T17:11:50;3.33;;;2.25;;
64060;SDS011;60147;55.036;73.242;2022-11-15T17:14:26;4.22;;;2.35;;
64060;SDS011;60147;55.036;73.242;2022-11-15T17:17:00;6.07;;;2.58;;
64060;SDS011;60147;55.036;73.242;2022-11-15T17:19:31;5.03;;;2.63;;
64060;SDS011;60147;55.036;73.242;2022-11-15T17:21:59;4.63;;;2.35;;
64060;SDS011;60147;55.036;73.242;2022-11-15T17:24:25;4.25;;;2.53;;
64060;SDS011;60147;55.036;73.242;2022-11-15T17:26:52;5.10;;;2.83;;
64060;SDS011;60147;55.036;73.242;2022-11-15T17:29:17;4.57;;;2.95;;
64060;SDS011;60147;55.036;73.242;2022-11-15T17:31:43;6.45;;;3.05;;
64060;SDS011;60147;55.036;73.242;2022-11-15T17:34:15;5.20;;;2.83;;
64060;SDS011;60147;55.036;73.242;2022-11-15T17:36:47;6.95;;;3.35;;
64060;SDS011;60147;55.036;73.242;2022-11-15T17:39:13;4.70;;;2.90;;
64060;SDS011;60147;55.036;73.242;2022-11-15T17:41:39;5.82;;;3.35;;
64060;SDS011;60147;55.036;73.242;2022-11-15T17:44:05;5.25;;;2.28;;
64060;SDS011;60147;55.036;73.242;2022-11-15T17:46:37;4.90;;;2.65;;
64060;SDS011;60147;55.036;73.242;2022-11-15T17:49:04;4.68;;;2.90;;
64060;SDS011;60147;55.036;73.242;2022-11-15T17:51:30;6.93;;;3.83;;
64060;SDS011;60147;55.036;73.242;2022-11-15T17:53:57;4.30;;;2.67;;
64060;SDS011;60147;55.036;73.242;2022-11-15T17:56:28;5.63;;;3.08;;
64060;SDS011;60147;55.036;73.242;2022-11-15T17:58:58;4.75;;;3.25;;
64060;SDS011;60147;55.036;73.242;2022-11-15T18:01:28;5.53;;;2.80;;
64060;SDS011;60147;55.036;73.242;2022-11-15T18:03:55;4.38;;;2.47;;
64060;SDS011;60147;55.036;73.242;2022-11-15T18:06:27;4.32;;;2.75;;
64060;SDS011;60147;55.036;73.242;2022-11-15T18:08:56;5.45;;;2.90;;
64060;SDS011;60147;55.036;73.242;2022-11-15T18:14:13;4.97;;;2.80;;
64060;SDS011;60147;55.036;73.242;2022-11-15T18:16:44;5.00;;;2.97;;
64060;SDS011;60147;55.036;73.242;2022-11-15T18:19:10;6.93;;;3.85;;
64060;SDS011;60147;55.036;73.242;2022-11-15T18:21:38;4.72;;;2.70;;
64060;SDS011;60147;55.036;73.242;2022-11-15T18:24:31;4.38;;;2.60;;
64060;SDS011;60147;55.036;73.242;2022-11-15T18:27:07;4.80;;;2.97;;
64060;SDS011;60147;55.036;73.242;2022-11-15T18:29:33;4.78;;;2.92;;
64060;SDS011;60147;55.036;73.242;2022-11-15T18:32:02;4.55;;;3.05;;
64060;SDS011;60147;55.036;73.242;2022-11-15T18:34:30;4.38;;;2.88;;
64060;SDS011;60147;55.036;73.242;2022-11-15T18:36:58;5.55;;;3.13;;
64060;SDS011;60147;55.036;73.242;2022-11-15T18:39:24;4.88;;;2.97;;
64060;SDS011;60147;55.036;73.242;2022-11-15T18:42:01;4.28;;;2.72;;
64060;SDS011;60147;55.036;73.242;2022-11-15T18:44:28;7.90;;;3.88;;
64060;SDS011;60147;55.036;73.242;2022-11-15T18:46:54;7.95;;;3.60;;
64060;SDS011;60147;55.036;73.242;2022-11-15T18:49:30;5.75;;;2.97;;
64060;SDS011;60147;55.036;73.242;2022-11-15T18:51:56;7.85;;;3.35;;
64060;SDS011;60147;55.036;73.242;2022-11-15T18:54:22;6.05;;;3.47;;
64060;SDS011;60147;55.036;73.242;2022-11-15T18:56:53;6.97;;;3.58;;
64060;SDS011;60147;55.036;73.242;2022-11-15T18:59:20;5.40;;;3.08;;
64060;SDS011;60147;55.036;73.242;2022-11-15T19:01:46;4.93;;;3.17;;
64060;SDS011;60147;55.036;73.242;2022-11-15T19:04:18;5.38;;;3.10;;
64060;SDS011;60147;55.036;73.242;2022-11-15T19:06:48;5.90;;;3.20;;
64060;SDS011;60147;55.036;73.242;2022-11-15T19:09:15;5.40;;;3.00;;
64060;SDS011;60147;55.036;73.242;2022-11-15T19:11:41;4.32;;;2.72;;
64060;SDS011;60147;55.036;73.242;2022-11-15T19:14:17;5.25;;;2.65;;
64060;SDS011;60147;55.036;73.242;2022-11-15T19:16:45;6.10;;;3.10;;
64060;SDS011;60147;55.036;73.242;2022-11-15T19:19:15;7.78;;;3.75;;
64060;SDS011;60147;55.036;73.242;2022-11-15T19:21:52;7.55;;;3.72;;
64060;SDS011;60147;55.036;73.242;2022-11-15T19:24:18;4.70;;;2.55;;
64060;SDS011;60147;55.036;73.242;2022-11-15T19:26:49;5.05;;;3.13;;
64060;SDS011;60147;55.036;73.242;2022-11-15T19:29:16;5.80;;;3.05;;
64060;SDS011;60147;55.036;73.242;2022-11-15T19:31:42;5.22;;;2.88;;
64060;SDS011;60147;55.036;73.242;2022-11-15T19:34:18;4.50;;;2.80;;
64060;SDS011;60147;55.036;73.242;2022-11-15T19:36:54;5.38;;;2.60;;
64060;SDS011;60147;55.036;73.242;2022-11-15T19:39:20;4.50;;;2.88;;
64060;SDS011;60147;55.036;73.242;2022-11-15T19:41:46;5.55;;;2.72;;
64060;SDS011;60147;55.036;73.242;2022-11-15T19:44:12;5.88;;;2.80;;
64060;SDS011;60147;55.036;73.242;2022-11-15T19:46:38;6.07;;;3.20;;
64060;SDS011;60147;55.036;73.242;2022-11-15T19:49:09;4.88;;;2.80;;
64060;SDS011;60147;55.036;73.242;2022-11-15T19:51:35;4.70;;;2.28;;
64060;SDS011;60147;55.036;73.242;2022-11-15T19:54:02;4.05;;;2.70;;
64060;SDS011;60147;55.036;73.242;2022-11-15T19:56:35;5.75;;;2.95;;
64060;SDS011;60147;55.036;73.242;2022-11-15T19:59:10;5.30;;;2.42;;
64060;SDS011;60147;55.036;73.242;2022-11-15T20:01:36;4.47;;;2.50;;
64060;SDS011;60147;55.036;73.242;2022-11-15T20:04:03;3.35;;;2.15;;
64060;SDS011;60147;55.036;73.242;2022-11-15T20:08:59;3.00;;;2.20;;
64060;SDS011;60147;55.036;73.242;2022-11-15T20:11:26;3.78;;;2.50;;
64060;SDS011;60147;55.036;73.242;2022-11-15T20:14:01;4.53;;;2.38;;
64060;SDS011;60147;55.036;73.242;2022-11-15T20:16:27;4.65;;;2.33;;
64060;SDS011;60147;55.036;73.242;2022-11-15T20:18:54;4.30;;;2.60;;
64060;SDS011;60147;55.036;73.242;2022-11-15T20:21:25;4.40;;;2.65;;
64060;SDS011;60147;55.036;73.242;2022-11-15T20:23:55;4.63;;;2.67;;
64060;SDS011;60147;55.036;73.242;2022-11-15T20:26:21;3.97;;;2.40;;
64060;SDS011;60147;55.036;73.242;2022-11-15T20:28:47;4.10;;;2.53;;
64060;SDS011;60147;55.036;73.242;2022-11-15T20:33:46;4.32;;;2.42;;
64060;SDS011;60147;55.036;73.242;2022-11-15T20:36:21;4.78;;;2.72;;
64060;SDS011;60147;55.036;73.242;2022-11-15T20:38:57;4.78;;;2.55;;
64060;SDS011;60147;55.036;73.242;2022-11-15T20:41:28;4.82;;;2.70;;
64060;SDS011;60147;55.036;73.242;2022-11-15T20:43:54;3.80;;;2.30;;
64060;SDS011;60147;55.036;73.242;2022-11-15T20:46:20;3.70;;;2.30;;
64060;SDS011;60147;55.036;73.242;2022-11-15T20:48:46;3.67;;;2.45;;
64060;SDS011;60147;55.036;73.242;2022-11-15T20:51:16;5.43;;;3.13;;
64060;SDS011;60147;55.036;73.242;2022-11-15T20:53:43;3.97;;;2.60;;
64060;SDS011;60147;55.036;73.242;2022-11-15T20:56:11;4.90;;;2.35;;
64060;SDS011;60147;55.036;73.242;2022-11-15T20:58:42;4.97;;;3.00;;
64060;SDS011;60147;55.036;73.242;2022-11-15T21:01:20;4.78;;;2.95;;
64060;SDS011;60147;55.036;73.242;2022-11-15T21:03:52;5.85;;;3.13;;
64060;SDS011;60147;55.036;73.242;2022-11-15T21:06:25;4.63;;;2.85;;
64060;SDS011;60147;55.036;73.242;2022-11-15T21:08:53;5.07;;;3.13;;
64060;SDS011;60147;55.036;73.242;2022-11-15T21:11:42;4.22;;;2.83;;
64060;SDS011;60147;55.036;73.242;2022-11-15T21:14:27;5.40;;;3.25;;
64060;SDS011;60147;55.036;73.242;2022-11-15T21:16:52;6.68;;;3.15;;
64060;SDS011;60147;55.036;73.242;2022-11-15T21:19:20;5.15;;;2.97;;
64060;SDS011;60147;55.036;73.242;2022-11-15T21:21:47;5.80;;;3.35;;
64060;SDS011;60147;55.036;73.242;2022-11-15T21:24:23;5.38;;;3.25;;
64060;SDS011;60147;55.036;73.242;2022-11-15T21:26:51;4.97;;;2.60;;
64060;SDS011;60147;55.036;73.242;2022-11-15T21:29:17;4.97;;;2.72;;
64060;SDS011;60147;55.036;73.242;2022-11-15T21:31:49;5.45;;;2.75;;
64060;SDS011;60147;55.036;73.242;2022-11-15T21:34:15;5.05;;;2.65;;
64060;SDS011;60147;55.036;73.242;2022-11-15T21:36:41;4.72;;;2.80;;
64060;SDS011;60147;55.036;73.242;2022-11-15T21:39:07;5.38;;;2.80;;
64060;SDS011;60147;55.036;73.242;2022-11-15T21:41:33;4.68;;;3.00;;
64060;SDS011;60147;55.036;73.242;2022-11-15T21:44:09;5.07;;;3.10;;
64060;SDS011;60147;55.036;73.242;2022-11-15T21:46:35;4.70;;;2.80;;
64060;SDS011;60147;55.036;73.242;2022-11-15T21:49:02;4.57;;;2.97;;
64060;SDS011;60147;55.036;73.242;2022-11-15T21:51:28;6.03;;;3.00;;
64060;SDS011;60147;55.036;73.242;2022-11-15T21:53:54;6.32;;;3.10;;
64060;SDS011;60147;55.036;73.242;2022-11-15T21:56:20;4.75;;;2.80;;
64060;SDS011;60147;55.036;73.242;2022-11-15T21:58:56;4.90;;;2.75;;
64060;SDS011;60147;55.036;73.242;2022-11-15T22:01:27;5.32;;;2.78;;
64060;SDS011;60147;55.036;73.242;2022-11-15T22:04:12;5.05;;;2.80;;
64060;SDS011;60147;55.036;73.242;2022-11-15T22:06:49;8.38;;;3.38;;
64060;SDS011;60147;55.036;73.242;2022-11-15T22:09:14;5.03;;;3.08;;
64060;SDS011;60147;55.036;73.242;2022-11-15T22:11:40;5.60;;;3.20;;
64060;SDS011;60147;55.036;73.242;2022-11-15T22:14:06;5.30;;;3.20;;
64060;SDS011;60147;55.036;73.242;2022-11-15T22:16:32;4.45;;;2.88;;
64060;SDS011;60147;55.036;73.242;2022-11-15T22:19:00;7.50;;;3.40;;
64060;SDS011;60147;55.036;73.242;2022-11-15T22:21:26;5.15;;;3.00;;
64060;SDS011;60147;55.036;73.242;2022-11-15T22:23:52;6.50;;;3.40;;
64060;SDS011;60147;55.036;73.242;2022-11-15T22:26:23;4.80;;;2.90;;
64060;SDS011;60147;55.036;73.242;2022-11-15T22:28:50;5.05;;;2.90;;
64060;SDS011;60147;55.036;73.242;2022-11-15T22:31:16;5.05;;;3.25;;
64060;SDS011;60147;55.036;73.242;2022-11-15T22:33:42;5.32;;;3.20;;
64060;SDS011;60147;55.036;73.242;2022-11-15T22:36:09;5.28;;;3.03;;
64060;SDS011;60147;55.036;73.242;2022-11-15T22:38:36;6.30;;;3.33;;
64060;SDS011;60147;55.036;73.242;2022-11-15T22:41:03;6.38;;;3.25;;
64060;SDS011;60147;55.036;73.242;2022-11-15T22:43:49;6.82;;;3.13;;
64060;SDS011;60147;55.036;73.242;2022-11-15T22:46:15;5.93;;;2.75;;
64060;SDS011;60147;55.036;73.242;2022-11-15T22:48:51;6.03;;;3.15;;
64060;SDS011;60147;55.036;73.242;2022-11-15T22:51:17;5.88;;;3.03;;
64060;SDS011;60147;55.036;73.242;2022-11-15T22:53:42;4.82;;;2.92;;
64060;SDS011;60147;55.036;73.242;2022-11-15T22:56:08;5.90;;;3.22;;
64060;SDS011;60147;55.036;73.242;2022-11-15T22:58:44;6.65;;;3.92;;
64060;SDS011;60147;55.036;73.242;2022-11-15T23:01:19;8.15;;;3.80;;
64060;SDS011;60147;55.036;73.242;2022-11-15T23:03:46;8.82;;;3.72;;
64060;SDS011;60147;55.036;73.242;2022-11-15T23:06:12;7.95;;;3.70;;
64060;SDS011;60147;55.036;73.242;2022-11-15T23:08:38;7.32;;;3.75;;
64060;SDS011;60147;55.036;73.242;2022-11-15T23:11:04;6.78;;;3.50;;
64060;SDS011;60147;55.036;73.242;2022-11-15T23:13:53;7.15;;;3.72;;
64060;SDS011;60147;55.036;73.242;2022-11-15T23:16:19;8.10;;;3.88;;
64060;SDS011;60147;55.036;73.242;2022-11-15T23:19:01;6.95;;;3.70;;
64060;SDS011;60147;55.036;73.242;2022-11-15T23:21:29;15.38;;;4.40;;
64060;SDS011;60147;55.036;73.242;2022-11-15T23:24:18;11.82;;;4.50;;
64060;SDS011;60147;55.036;73.242;2022-11-15T23:26:51;10.43;;;4.95;;
64060;SDS011;60147;55.036;73.242;2022-11-15T23:29:22;17.48;;;5.53;;
64060;SDS011;60147;55.036;73.242;2022-11-15T23:31:54;20.05;;;5.45;;
64060;SDS011;60147;55.036;73.242;2022-11-15T23:34:40;19.45;;;5.00;;
64060;SDS011;60147;55.036;73.242;2022-11-15T23:37:12;11.23;;;4.50;;
64060;SDS011;60147;55.036;73.242;2022-11-15T23:39:38;8.45;;;4.43;;
64060;SDS011;60147;55.036;73.242;2022-11-15T23:42:04;6.30;;;3.60;;
64060;SDS011;60147;55.036;73.242;2022-11-15T23:44:30;8.27;;;3.92;;
64060;SDS011;60147;55.036;73.242;2022-11-15T23:46:56;10.55;;;4.47;;
64060;SDS011;60147;55.036;73.242;2022-11-15T23:51:58;9.32;;;3.70;;
64060;SDS011;60147;55.036;73.242;2022-11-15T23:54:34;8.90;;;3.58;;
64060;SDS011;60147;55.036;73.242;2022-11-15T23:57:00;8.10;;;4.03;;
64060;SDS011;60147;55.036;73.242;2022-11-15T23:59:26;8.05;;;3.75;;
